Time;durP1;ratioP1;P1;durP2;ratioP2;P2;SDS_P1;SDS_P2;PMS_P1;PMS_P2;Temp;Humidity;BMP_temperature;BMP_pressure;BME280_temperature;BME280_humidity;BME280_pressure;Samples;Min_cycle;Max_cycle;Signal;HPM_P1;HPM_P2
2022/03/09 00:02:16;;;;;;;;;;;8.40;99.90;;;;;;5098211;28;19915;-90
2022/03/09 00:04:42;;;;;;;;;;;8.40;99.90;;;;;;5092222;28;20407;-91
2022/03/09 00:07:07;;;;;;;;;;;8.40;99.90;;;;;;5075244;28;19912;-89
2022/03/09 00:09:34;;;;;;;;;;;8.40;99.90;;;;;;5074219;28;20401;-90
2022/03/09 00:12:00;;;;;;;;;;;8.40;99.90;;;;;;5093586;28;19908;-90
2022/03/09 00:14:25;;;;;;;;;;;8.40;99.90;;;;;;5112187;28;19914;-90
2022/03/09 00:16:51;;;;;;;;;;;8.30;99.90;;;;;;5093219;28;20375;-90
2022/03/09 00:19:17;;;;;;;;;;;8.30;99.90;;;;;;5111913;28;20015;-89
2022/03/09 00:21:42;;;;;;;;;;;8.20;99.90;;;;;;5112303;28;20295;-90
2022/03/09 00:24:08;;;;;;;;;;;8.10;99.90;;;;;;5075512;28;19909;-90
2022/03/09 00:26:33;;;;;;;;;;;8.10;99.90;;;;;;5096467;28;19976;-90
2022/03/09 00:28:59;;;;;;;;;;;8.10;99.90;;;;;;5088675;28;19908;-90
2022/03/09 00:31:24;;;;;;;;;;;8.00;99.90;;;;;;5085382;28;19908;-90
2022/03/09 00:33:50;;;;;;;;;;;7.90;99.90;;;;;;5092125;28;19916;-90
2022/03/09 00:36:16;;;;;;;;;;;8.00;99.90;;;;;;5073683;28;19908;-90
2022/03/09 00:38:41;;;;;;;;;;;8.00;99.90;;;;;;5073483;28;20273;-90
2022/03/09 00:41:07;;;;;;;;;;;8.00;99.90;;;;;;5089398;28;19908;-90
2022/03/09 00:43:32;;;;;;;;;;;8.00;99.90;;;;;;5100085;28;19916;-90
2022/03/09 00:45:58;;;;;;;;;;;8.00;99.90;;;;;;5084570;28;20426;-90
2022/03/09 00:48:25;;;;;;;;;;;8.10;99.90;;;;;;5091427;28;19908;-90
2022/03/09 00:50:50;;;;;;;;;;;8.00;99.90;;;;;;5088948;28;19911;-90
2022/03/09 00:53:16;;;;;;;;;;;8.00;99.90;;;;;;5094740;28;20433;-90
2022/03/09 00:55:41;;;;;;;;;;;8.00;99.90;;;;;;5113668;28;19908;-90
2022/03/09 00:58:07;;;;;;;;;;;8.00;99.90;;;;;;5079174;28;19924;-90
2022/03/09 01:00:33;;;;;;;;;;;8.00;99.90;;;;;;5104664;28;20276;-90
2022/03/09 01:02:58;;;;;;;;;;;7.90;99.90;;;;;;5093406;28;19915;-90
2022/03/09 01:05:24;;;;;;;;;;;7.90;99.90;;;;;;5106391;28;19943;-90
2022/03/09 01:07:50;;;;;;;;;;;8.00;99.90;;;;;;5092900;28;19919;-90
2022/03/09 01:10:15;;;;;;;;;;;7.90;99.90;;;;;;5073947;28;19904;-90
2022/03/09 01:12:41;;;;;;;;;;;7.90;99.90;;;;;;5091508;28;19961;-90
2022/03/09 01:15:07;;;;;;;;;;;7.90;99.90;;;;;;5073004;28;19908;-90
2022/03/09 01:17:32;;;;;;;;;;;7.90;99.90;;;;;;5074754;28;19908;-90
2022/03/09 01:19:58;;;;;;;;;;;8.00;99.90;;;;;;5073318;28;19920;-89
2022/03/09 01:22:24;;;;;;;;;;;7.90;99.90;;;;;;5083912;28;19930;-91
2022/03/09 01:24:49;;;;;;;;;;;7.90;99.90;;;;;;5093633;28;19908;-90
2022/03/09 01:27:15;;;;;;;;;;;7.90;99.90;;;;;;5104003;28;20338;-91
2022/03/09 01:29:41;;;;;;;;;;;7.80;99.90;;;;;;5094097;28;19908;-90
2022/03/09 01:32:06;;;;;;;;;;;7.90;99.90;;;;;;5103285;28;19912;-90
2022/03/09 01:34:32;;;;;;;;;;;7.90;99.90;;;;;;5095889;28;19914;-90
2022/03/09 01:36:58;;;;;;;;;;;7.80;99.90;;;;;;5094703;28;19908;-90
2022/03/09 01:39:23;;;;;;;;;;;7.90;99.90;;;;;;5090452;28;19916;-90
2022/03/09 01:41:59;;;;;;;;;;;7.80;99.90;;;;;;5091218;28;19987;-90
2022/03/09 01:44:25;;;;;;;;;;;7.80;99.90;;;;;;5074933;28;19919;-91
2022/03/09 01:46:54;;;;;;;;;;;7.80;99.90;;;;;;5076623;28;20316;-90
2022/03/09 01:49:20;;;;;;;;;;;7.80;99.90;;;;;;5094151;28;19911;-91
2022/03/09 01:51:47;;;;;;;;;;;7.80;99.90;;;;;;5089984;28;19908;-90
2022/03/09 01:54:13;;;;;;;;;;;7.80;99.90;;;;;;5079518;28;19916;-91
2022/03/09 01:56:39;;;;;;;;;;;7.70;99.90;;;;;;5092872;28;20051;-90
2022/03/09 01:59:06;;;;;;;;;;;7.60;99.90;;;;;;5091963;28;20048;-91
2022/03/09 02:01:32;;;;;;;;;;;7.60;99.90;;;;;;5090989;28;19919;-90
2022/03/09 02:04:01;;;;;;;;;;;7.50;99.90;;;;;;5105384;28;19908;-91
2022/03/09 02:06:27;;;;;;;;;;;7.50;99.90;;;;;;5086349;28;19908;-91
2022/03/09 02:11:38;;;;;;;;;;;7.40;99.90;;;;;;5114364;28;20517;-90
2022/03/09 02:14:04;;;;;;;;;;;7.30;99.90;;;;;;5082409;28;19994;-91
2022/03/09 02:16:30;;;;;;;;;;;7.30;99.90;;;;;;5098047;28;19923;-91
2022/03/09 02:18:55;;;;;;;;;;;7.20;99.90;;;;;;5083482;28;19916;-91
2022/03/09 02:21:23;;;;;;;;;;;7.30;99.90;;;;;;5096130;28;19919;-91
2022/03/09 02:23:48;;;;;;;;;;;7.20;99.90;;;;;;5084832;28;19907;-91
2022/03/09 02:26:14;;;;;;;;;;;7.20;99.90;;;;;;5100652;28;20324;-91
2022/03/09 02:28:44;;;;;;;;;;;7.20;99.90;;;;;;5077137;28;19915;-91
2022/03/09 02:31:09;;;;;;;;;;;7.20;99.90;;;;;;5087334;28;19916;-91
2022/03/09 02:33:35;;;;;;;;;;;7.20;99.90;;;;;;5075790;28;19908;-90
2022/03/09 02:36:01;;;;;;;;;;;7.20;99.90;;;;;;5083937;28;19919;-91
2022/03/09 02:38:26;;;;;;;;;;;7.20;99.90;;;;;;5093992;28;20212;-91
2022/03/09 02:40:52;;;;;;;;;;;7.20;99.90;;;;;;5101182;28;19908;-91
2022/03/09 02:43:17;;;;;;;;;;;7.20;99.90;;;;;;5096479;28;19908;-91
2022/03/09 02:45:43;;;;;;;;;;;7.20;99.90;;;;;;5077398;28;19989;-91
2022/03/09 02:48:08;;;;;;;;;;;7.20;99.90;;;;;;5078827;28;19922;-91
2022/03/09 02:50:34;;;;;;;;;;;7.20;99.90;;;;;;5095157;28;20403;-91
2022/03/09 02:53:00;;;;;;;;;;;7.20;99.90;;;;;;5100527;28;19912;-90
2022/03/09 02:55:25;;;;;;;;;;;7.20;99.90;;;;;;5100598;28;19962;-91
2022/03/09 02:57:51;;;;;;;;;;;7.20;99.90;;;;;;5093290;28;19934;-91
2022/03/09 03:00:16;;;;;;;;;;;7.20;99.90;;;;;;5083999;28;19944;-91
2022/03/09 03:02:42;;;;;;;;;;;7.20;99.90;;;;;;5093830;28;19912;-91
2022/03/09 03:05:08;;;;;;;;;;;7.30;99.90;;;;;;5094045;28;19995;-91
2022/03/09 03:07:34;;;;;;;;;;;7.30;99.90;;;;;;5109870;28;19908;-91
2022/03/09 03:09:59;;;;;;;;;;;7.30;99.90;;;;;;5077718;28;19926;-91
2022/03/09 03:12:25;;;;;;;;;;;7.40;99.90;;;;;;5086689;28;20006;-91
2022/03/09 03:14:51;;;;;;;;;;;7.40;99.90;;;;;;5081180;28;20030;-91
2022/03/09 03:17:16;;;;;;;;;;;7.40;99.90;;;;;;5088445;28;19918;-91
2022/03/09 03:19:42;;;;;;;;;;;7.40;99.90;;;;;;5096477;28;19920;-91
2022/03/09 03:22:07;;;;;;;;;;;7.40;99.90;;;;;;5095420;28;19908;-91
2022/03/09 03:24:33;;;;;;;;;;;7.50;99.90;;;;;;5094758;28;20396;-91
2022/03/09 03:26:58;;;;;;;;;;;7.40;99.90;;;;;;5080432;28;19908;-91
2022/03/09 03:29:24;;;;;;;;;;;7.50;99.90;;;;;;5078429;28;19908;-91
2022/03/09 03:31:53;;;;;;;;;;;7.60;99.90;;;;;;5095768;28;19992;-91
2022/03/09 03:34:18;;;;;;;;;;;7.70;99.90;;;;;;5084911;28;19934;-91
2022/03/09 03:36:44;;;;;;;;;;;7.80;99.90;;;;;;5095723;28;19908;-91
2022/03/09 03:39:10;;;;;;;;;;;7.80;99.90;;;;;;5081436;28;19935;-91
2022/03/09 03:41:36;;;;;;;;;;;7.80;99.90;;;;;;5078294;28;19912;-91
2022/03/09 03:44:03;;;;;;;;;;;7.70;99.90;;;;;;5099591;28;19908;-91
2022/03/09 03:46:28;;;;;;;;;;;7.70;99.90;;;;;;5074741;28;19912;-92
2022/03/09 03:48:54;;;;;;;;;;;7.60;99.90;;;;;;5093998;28;19908;-91
2022/03/09 03:51:22;;;;;;;;;;;7.60;99.90;;;;;;5076829;28;20091;-90
2022/03/09 03:53:48;;;;;;;;;;;7.60;99.90;;;;;;5074374;28;20075;-91
2022/03/09 03:56:13;;;;;;;;;;;7.50;99.90;;;;;;5074726;28;20058;-91
2022/03/09 03:58:39;;;;;;;;;;;7.50;99.90;;;;;;5075462;28;19920;-91
2022/03/09 04:01:06;;;;;;;;;;;7.50;99.90;;;;;;5087367;28;19908;-90
2022/03/09 04:03:31;;;;;;;;;;;7.50;99.90;;;;;;5118497;28;20364;-91
2022/03/09 04:05:57;;;;;;;;;;;7.50;99.90;;;;;;5083309;28;19923;-89
2022/03/09 04:08:22;;;;;;;;;;;7.40;99.90;;;;;;5077342;28;19907;-88
2022/03/09 04:10:48;;;;;;;;;;;7.50;99.90;;;;;;5101905;28;20007;-91
2022/03/09 04:13:13;;;;;;;;;;;7.50;99.90;;;;;;5075114;28;20297;-91
2022/03/09 04:15:39;;;;;;;;;;;7.50;99.90;;;;;;5074302;28;19999;-91
2022/03/09 04:18:05;;;;;;;;;;;7.50;99.90;;;;;;5075494;28;20007;-91
2022/03/09 04:20:31;;;;;;;;;;;7.50;99.90;;;;;;5076061;28;19912;-91
2022/03/09 04:22:56;;;;;;;;;;;7.40;99.90;;;;;;5094825;28;19915;-91
2022/03/09 04:25:22;;;;;;;;;;;7.40;99.90;;;;;;5112042;28;19907;-91
2022/03/09 04:27:48;;;;;;;;;;;7.30;99.90;;;;;;5093298;28;19908;-91
2022/03/09 04:30:13;;;;;;;;;;;7.20;99.90;;;;;;5098952;28;20054;-91
2022/03/09 04:32:39;;;;;;;;;;;7.20;99.90;;;;;;5075230;28;19908;-92
2022/03/09 04:35:06;;;;;;;;;;;7.00;99.90;;;;;;5094641;28;19908;-91
2022/03/09 04:37:33;;;;;;;;;;;7.00;99.90;;;;;;5104388;28;19918;-91
2022/03/09 04:39:59;;;;;;;;;;;6.90;99.90;;;;;;5100047;28;20375;-91
2022/03/09 04:42:25;;;;;;;;;;;6.90;99.90;;;;;;5105823;28;19915;-91
2022/03/09 04:44:51;;;;;;;;;;;6.80;99.90;;;;;;5081433;28;19912;-91
2022/03/09 04:47:17;;;;;;;;;;;6.70;99.90;;;;;;5088253;28;19916;-91
2022/03/09 04:49:42;;;;;;;;;;;6.70;99.90;;;;;;5093491;28;19908;-91
2022/03/09 04:52:08;;;;;;;;;;;6.70;99.90;;;;;;5087824;28;20007;-91
2022/03/09 04:54:33;;;;;;;;;;;6.70;99.90;;;;;;5096959;28;20159;-91
2022/03/09 04:56:59;;;;;;;;;;;6.70;99.90;;;;;;5087965;28;19912;-91
2022/03/09 04:59:25;;;;;;;;;;;6.70;99.90;;;;;;5077247;28;19927;-91
2022/03/09 05:01:50;;;;;;;;;;;6.70;99.90;;;;;;5077458;28;19912;-91
2022/03/09 05:04:16;;;;;;;;;;;6.60;99.90;;;;;;5105350;28;19987;-91
2022/03/09 05:06:41;;;;;;;;;;;6.60;99.90;;;;;;5079388;28;19916;-90
2022/03/09 05:09:07;;;;;;;;;;;6.70;99.90;;;;;;5105239;28;19935;-91
2022/03/09 05:11:32;;;;;;;;;;;6.70;99.90;;;;;;5116613;28;19911;-90
2022/03/09 05:13:58;;;;;;;;;;;6.70;99.90;;;;;;5130239;28;19961;-92
2022/03/09 05:16:23;;;;;;;;;;;6.70;99.90;;;;;;5116463;28;19901;-91
2022/03/09 05:18:49;;;;;;;;;;;6.70;99.90;;;;;;5118245;28;19908;-91
2022/03/09 05:21:15;;;;;;;;;;;6.70;99.90;;;;;;5128426;28;19927;-91
2022/03/09 05:23:40;;;;;;;;;;;6.60;99.90;;;;;;5104756;28;19983;-90
2022/03/09 05:26:06;;;;;;;;;;;6.60;99.90;;;;;;5112177;28;19912;-90
2022/03/09 05:28:31;;;;;;;;;;;6.60;99.90;;;;;;5117872;28;19911;-90
2022/03/09 05:30:57;;;;;;;;;;;6.60;99.90;;;;;;5112277;28;19908;-91
2022/03/09 05:33:22;;;;;;;;;;;6.60;99.90;;;;;;5099215;28;19926;-91
2022/03/09 05:35:48;;;;;;;;;;;6.50;99.90;;;;;;5103309;28;19919;-92
2022/03/09 05:38:14;;;;;;;;;;;6.50;99.90;;;;;;5115036;28;19920;-90
2022/03/09 05:40:40;;;;;;;;;;;6.50;99.90;;;;;;5112408;28;19913;-91
2022/03/09 05:43:05;;;;;;;;;;;6.50;99.90;;;;;;5102815;28;19946;-91
2022/03/09 05:45:31;;;;;;;;;;;6.50;99.90;;;;;;5109827;28;19912;-91
2022/03/09 05:47:57;;;;;;;;;;;6.40;99.90;;;;;;5120313;28;19912;-90
2022/03/09 05:50:22;;;;;;;;;;;6.40;99.90;;;;;;5116098;28;19934;-91
2022/03/09 05:52:48;;;;;;;;;;;6.40;99.90;;;;;;5094449;28;20165;-91
2022/03/09 05:55:14;;;;;;;;;;;6.40;99.90;;;;;;5083059;28;19961;-91
2022/03/09 05:57:39;;;;;;;;;;;6.40;99.90;;;;;;5077778;28;19928;-91
2022/03/09 06:00:06;;;;;;;;;;;6.40;99.90;;;;;;5083056;28;21466;-91
2022/03/09 06:02:32;;;;;;;;;;;6.30;99.90;;;;;;5076801;28;19994;-91
2022/03/09 06:04:57;;;;;;;;;;;6.30;99.90;;;;;;5080502;28;19920;-91
2022/03/09 06:07:23;;;;;;;;;;;6.30;99.90;;;;;;5079424;28;19908;-91
2022/03/09 06:09:49;;;;;;;;;;;6.30;99.90;;;;;;5080314;28;19915;-90
2022/03/09 06:12:15;;;;;;;;;;;6.30;99.90;;;;;;5099871;28;19950;-91
2022/03/09 06:14:41;;;;;;;;;;;6.30;99.90;;;;;;5116530;28;19926;-91
2022/03/09 06:17:06;;;;;;;;;;;6.30;99.90;;;;;;5096901;28;19907;-91
2022/03/09 06:19:32;;;;;;;;;;;6.30;99.90;;;;;;5077780;28;20017;-91
2022/03/09 06:21:57;;;;;;;;;;;6.20;99.90;;;;;;5095883;28;19981;-91
2022/03/09 06:24:23;;;;;;;;;;;6.30;99.90;;;;;;5089536;28;19908;-95
2022/03/09 06:26:48;;;;;;;;;;;6.20;99.90;;;;;;5089758;28;19907;-90
2022/03/09 06:29:17;;;;;;;;;;;6.20;99.90;;;;;;5084442;28;19916;-91
2022/03/09 06:31:44;;;;;;;;;;;6.20;99.90;;;;;;5078782;28;19908;-89
2022/03/09 06:34:10;;;;;;;;;;;6.30;99.90;;;;;;5075932;28;20016;-90
2022/03/09 06:36:37;;;;;;;;;;;6.20;99.90;;;;;;5113240;28;20053;-90
2022/03/09 06:39:03;;;;;;;;;;;6.20;99.90;;;;;;5076902;28;19933;-90
2022/03/09 06:41:29;;;;;;;;;;;6.20;99.90;;;;;;5093866;28;19994;-90
2022/03/09 06:43:54;;;;;;;;;;;6.20;99.90;;;;;;5075376;28;19908;-90
2022/03/09 06:46:20;;;;;;;;;;;6.20;99.90;;;;;;5094222;28;19942;-89
2022/03/09 06:48:45;;;;;;;;;;;6.20;99.90;;;;;;5093935;28;19916;-90
2022/03/09 06:51:11;;;;;;;;;;;6.20;99.90;;;;;;5097452;28;19914;-89
2022/03/09 06:53:36;;;;;;;;;;;6.10;99.90;;;;;;5084702;28;20093;-89
2022/03/09 06:56:02;;;;;;;;;;;6.10;99.90;;;;;;5093787;28;19908;-89
2022/03/09 06:58:28;;;;;;;;;;;6.10;99.90;;;;;;5093223;28;19950;-89
2022/03/09 07:00:55;;;;;;;;;;;6.20;99.90;;;;;;5093549;28;19919;-90
2022/03/09 07:03:21;;;;;;;;;;;6.20;99.90;;;;;;5102650;28;19951;-89
2022/03/09 07:05:46;;;;;;;;;;;6.20;99.90;;;;;;5110774;28;19958;-89
2022/03/09 07:08:12;;;;;;;;;;;6.20;99.90;;;;;;5075318;28;20391;-90
2022/03/09 07:10:38;;;;;;;;;;;6.20;99.90;;;;;;5093389;28;20026;-90
2022/03/09 07:13:03;;;;;;;;;;;6.30;99.90;;;;;;5076276;28;19954;-90
2022/03/09 07:15:29;;;;;;;;;;;6.30;99.90;;;;;;5094864;28;20103;-89
2022/03/09 07:17:54;;;;;;;;;;;6.30;99.90;;;;;;5094429;28;19958;-89
2022/03/09 07:20:20;;;;;;;;;;;6.30;99.90;;;;;;5094663;28;20395;-90
2022/03/09 07:22:46;;;;;;;;;;;6.40;99.90;;;;;;5074464;28;19908;-89
2022/03/09 07:25:12;;;;;;;;;;;6.50;99.90;;;;;;5093037;28;19916;-90
2022/03/09 07:27:38;;;;;;;;;;;6.60;99.90;;;;;;5074978;28;19908;-90
2022/03/09 07:30:04;;;;;;;;;;;6.60;99.90;;;;;;5092818;28;20287;-89
2022/03/09 07:32:30;;;;;;;;;;;6.70;99.90;;;;;;5093748;28;20257;-90
2022/03/09 07:34:55;;;;;;;;;;;6.80;99.90;;;;;;5089042;28;19908;-90
2022/03/09 07:37:21;;;;;;;;;;;6.80;99.90;;;;;;5074720;28;19912;-89
2022/03/09 07:39:47;;;;;;;;;;;6.90;99.90;;;;;;5086220;28;19923;-90
2022/03/09 07:42:12;;;;;;;;;;;7.00;99.90;;;;;;5093747;28;19908;-90
2022/03/09 07:44:38;;;;;;;;;;;7.00;99.90;;;;;;5093763;28;19915;-90
2022/03/09 07:47:04;;;;;;;;;;;7.00;99.90;;;;;;5102208;28;20368;-90
2022/03/09 07:49:33;;;;;;;;;;;7.10;99.90;;;;;;5074492;28;19908;-90
2022/03/09 07:51:59;;;;;;;;;;;7.10;99.90;;;;;;5091520;28;19908;-89
2022/03/09 07:54:25;;;;;;;;;;;7.10;99.90;;;;;;5112183;28;19911;-90
2022/03/09 07:56:50;;;;;;;;;;;7.20;99.90;;;;;;5093664;28;20391;-89
2022/03/09 07:59:16;;;;;;;;;;;7.20;99.90;;;;;;5111305;28;19962;-89
2022/03/09 08:01:41;;;;;;;;;;;7.30;99.90;;;;;;5084702;28;19908;-90
2022/03/09 08:04:07;;;;;;;;;;;7.30;99.90;;;;;;5073329;28;19908;-89
2022/03/09 08:06:34;;;;;;;;;;;7.40;99.90;;;;;;5107283;28;19998;-89
2022/03/09 08:08:59;;;;;;;;;;;7.60;99.90;;;;;;5112255;28;19952;-89
2022/03/09 08:11:25;;;;;;;;;;;7.70;99.90;;;;;;5079211;28;19912;-90
2022/03/09 08:13:51;;;;;;;;;;;7.80;99.90;;;;;;5092184;28;20391;-89
2022/03/09 08:16:16;;;;;;;;;;;7.90;99.90;;;;;;5081341;28;19955;-90
2022/03/09 08:18:42;;;;;;;;;;;7.90;99.90;;;;;;5111771;28;19935;-89
2022/03/09 08:21:07;;;;;;;;;;;8.10;99.90;;;;;;5086871;28;19912;-93
2022/03/09 08:23:33;;;;;;;;;;;8.10;99.90;;;;;;5093008;28;19908;-90
2022/03/09 08:25:58;;;;;;;;;;;8.20;99.90;;;;;;5075455;28;19908;-89
2022/03/09 08:28:24;;;;;;;;;;;8.30;99.90;;;;;;5085814;28;19908;-89
2022/03/09 08:30:50;;;;;;;;;;;8.30;99.90;;;;;;5087938;28;19939;-89
2022/03/09 08:33:15;;;;;;;;;;;8.40;99.90;;;;;;5092137;28;19995;-90
2022/03/09 08:35:41;;;;;;;;;;;8.40;99.90;;;;;;5084968;28;19918;-89
2022/03/09 08:38:06;;;;;;;;;;;8.40;99.90;;;;;;5111037;28;19915;-89
2022/03/09 08:40:32;;;;;;;;;;;8.50;99.90;;;;;;5092720;28;19960;-89
2022/03/09 08:42:57;;;;;;;;;;;8.60;99.90;;;;;;5107254;28;19908;-89
2022/03/09 08:45:23;;;;;;;;;;;8.70;99.90;;;;;;5073344;28;19908;-89
2022/03/09 08:47:49;;;;;;;;;;;8.80;99.90;;;;;;5107797;28;19908;-89
2022/03/09 08:50:14;;;;;;;;;;;8.90;99.90;;;;;;5108637;28;19928;-89
2022/03/09 08:52:40;;;;;;;;;;;8.90;99.90;;;;;;5105713;28;19907;-89
2022/03/09 08:55:06;;;;;;;;;;;9.00;99.90;;;;;;5094603;28;20012;-89
2022/03/09 08:57:31;;;;;;;;;;;9.10;99.90;;;;;;5111497;28;20029;-89
2022/03/09 08:59:57;;;;;;;;;;;9.10;99.90;;;;;;5084263;28;20074;-89
2022/03/09 09:02:23;;;;;;;;;;;9.20;99.90;;;;;;5091864;28;19908;-89
2022/03/09 09:04:49;;;;;;;;;;;9.30;99.90;;;;;;5073852;28;19992;-89
2022/03/09 09:07:14;;;;;;;;;;;9.40;99.90;;;;;;5092124;28;19981;-89
2022/03/09 09:09:40;;;;;;;;;;;9.40;99.90;;;;;;5091504;28;20098;-89
2022/03/09 09:12:06;;;;;;;;;;;9.50;99.90;;;;;;5091723;28;19908;-89
2022/03/09 09:14:31;;;;;;;;;;;9.60;99.90;;;;;;5091561;28;19908;-89
2022/03/09 09:16:57;;;;;;;;;;;9.70;99.90;;;;;;5102023;28;19915;-89
2022/03/09 09:19:23;;;;;;;;;;;9.70;99.90;;;;;;5114722;28;20409;-90
2022/03/09 09:21:48;;;;;;;;;;;9.80;99.90;;;;;;5109821;28;19915;-90
2022/03/09 09:24:14;;;;;;;;;;;9.90;99.90;;;;;;5100313;28;20353;-89
2022/03/09 09:26:40;;;;;;;;;;;9.90;99.90;;;;;;5114870;28;20161;-89
2022/03/09 09:29:06;;;;;;;;;;;10.00;99.90;;;;;;5096169;28;19908;-89
2022/03/09 09:31:32;;;;;;;;;;;10.10;99.90;;;;;;5108148;28;19943;-89
2022/03/09 09:33:58;;;;;;;;;;;10.20;99.90;;;;;;5110940;28;20205;-89
2022/03/09 09:36:23;;;;;;;;;;;10.30;99.90;;;;;;5095467;28;19912;-88
2022/03/09 09:38:49;;;;;;;;;;;10.40;99.90;;;;;;5094844;28;20269;-89
2022/03/09 09:41:19;;;;;;;;;;;10.40;99.90;;;;;;5097995;28;19915;-89
2022/03/09 09:43:45;;;;;;;;;;;10.40;99.90;;;;;;5079445;28;19908;-90
2022/03/09 09:46:12;;;;;;;;;;;10.60;99.90;;;;;;5104879;28;19913;-89
2022/03/09 09:48:37;;;;;;;;;;;10.60;99.90;;;;;;5093655;28;19915;-90
2022/03/09 09:51:03;;;;;;;;;;;10.60;99.90;;;;;;5104750;28;19912;-90
2022/03/09 09:53:30;;;;;;;;;;;10.70;99.90;;;;;;5096235;28;19912;-89
2022/03/09 09:55:57;;;;;;;;;;;10.80;99.90;;;;;;5114464;28;20395;-89
2022/03/09 09:58:23;;;;;;;;;;;10.90;99.90;;;;;;5095614;28;19931;-90
2022/03/09 10:00:48;;;;;;;;;;;10.90;99.90;;;;;;5114304;28;19908;-89
2022/03/09 10:03:14;;;;;;;;;;;11.00;99.90;;;;;;5081645;28;19916;-89
2022/03/09 10:05:40;;;;;;;;;;;11.10;99.90;;;;;;5076304;28;19954;-88
2022/03/09 10:08:05;;;;;;;;;;;11.20;99.90;;;;;;5094702;28;19965;-88
2022/03/09 10:10:32;;;;;;;;;;;11.30;99.90;;;;;;5076340;28;20273;-89
2022/03/09 10:13:09;;;;;;;;;;;11.40;99.90;;;;;;5076066;28;19909;-90
2022/03/09 10:15:34;;;;;;;;;;;11.50;99.90;;;;;;5105009;28;19911;-89
2022/03/09 10:18:13;;;;;;;;;;;11.60;99.90;;;;;;5096648;28;19915;-89
2022/03/09 10:20:38;;;;;;;;;;;11.70;99.90;;;;;;5113978;28;20399;-89
2022/03/09 10:23:04;;;;;;;;;;;11.70;99.90;;;;;;5086724;28;19908;-89
2022/03/09 10:25:29;;;;;;;;;;;11.80;99.90;;;;;;5094253;28;20437;-90
2022/03/09 10:27:57;;;;;;;;;;;12.00;99.90;;;;;;5094591;28;20301;-90
2022/03/09 10:30:23;;;;;;;;;;;12.20;99.90;;;;;;5113587;28;19999;-89
2022/03/09 10:32:49;;;;;;;;;;;12.30;99.90;;;;;;5095624;28;20150;-89
2022/03/09 10:35:16;;;;;;;;;;;12.40;99.90;;;;;;5081251;28;20161;-89
2022/03/09 10:37:42;;;;;;;;;;;12.50;99.90;;;;;;5107952;28;19911;-89
2022/03/09 10:40:09;;;;;;;;;;;12.50;99.90;;;;;;5113859;28;19916;-89
2022/03/09 10:42:35;;;;;;;;;;;12.40;99.90;;;;;;5088536;28;20304;-90
2022/03/09 10:45:03;;;;;;;;;;;12.60;99.90;;;;;;5107580;28;19957;-89
2022/03/09 10:47:30;;;;;;;;;;;12.80;99.90;;;;;;5113325;28;19907;-90
2022/03/09 10:50:07;;;;;;;;;;;13.00;99.90;;;;;;5093600;28;19970;-90
2022/03/09 10:52:42;;;;;;;;;;;13.10;99.90;;;;;;5103523;28;20304;-90
2022/03/09 10:55:31;;;;;;;;;;;13.30;99.90;;;;;;5113365;28;20356;-90
2022/03/09 10:58:15;;;;;;;;;;;13.40;99.90;;;;;;5099842;28;20002;-89
2022/03/09 11:00:42;;;;;;;;;;;13.40;99.90;;;;;;5113091;28;20114;-89
2022/03/09 11:03:09;;;;;;;;;;;13.30;99.90;;;;;;5075348;28;20015;-89
2022/03/09 11:05:35;;;;;;;;;;;13.30;99.90;;;;;;5100339;28;19909;-89
2022/03/09 11:08:01;;;;;;;;;;;13.40;99.90;;;;;;5094621;28;19912;-89
2022/03/09 11:10:29;;;;;;;;;;;13.40;99.90;;;;;;5113293;28;19908;-89
2022/03/09 11:12:55;;;;;;;;;;;13.50;99.90;;;;;;5068123;28;20007;-89
2022/03/09 11:15:21;;;;;;;;;;;13.60;99.90;;;;;;5113738;28;20454;-89
2022/03/09 11:17:48;;;;;;;;;;;13.50;99.90;;;;;;5076140;28;19912;-90
2022/03/09 11:20:15;;;;;;;;;;;13.60;99.90;;;;;;5099151;28;19916;-89
2022/03/09 11:22:41;;;;;;;;;;;13.70;99.90;;;;;;5112731;28;19919;-89
2022/03/09 11:25:08;;;;;;;;;;;14.00;99.90;;;;;;5094483;28;19951;-89
2022/03/09 11:27:33;;;;;;;;;;;14.00;99.90;;;;;;5100567;28;19908;-89
2022/03/09 11:30:19;;;;;;;;;;;14.10;99.90;;;;;;5083143;28;20400;-94
2022/03/09 11:32:44;;;;;;;;;;;14.30;99.90;;;;;;5092730;28;19908;-89
2022/03/09 11:35:33;;;;;;;;;;;14.50;99.90;;;;;;5092890;28;20495;-89
2022/03/09 11:37:59;;;;;;;;;;;14.70;99.90;;;;;;5078513;28;19956;-89
2022/03/09 11:40:24;;;;;;;;;;;14.50;99.90;;;;;;5092618;28;20568;-89
2022/03/09 11:42:50;;;;;;;;;;;14.50;99.90;;;;;;5092137;28;19912;-90
2022/03/09 11:45:29;;;;;;;;;;;14.50;99.90;;;;;;5092706;28;19915;-89
2022/03/09 11:47:56;;;;;;;;;;;14.50;99.90;;;;;;5074457;28;19908;-89
2022/03/09 11:50:22;;;;;;;;;;;14.50;99.90;;;;;;5074032;28;19961;-89
2022/03/09 11:52:57;;;;;;;;;;;14.50;99.90;;;;;;5092367;28;19908;-89
2022/03/09 11:55:23;;;;;;;;;;;14.60;99.90;;;;;;5084989;28;19908;-89
2022/03/09 11:57:48;;;;;;;;;;;14.80;99.90;;;;;;5111483;28;19918;-89
2022/03/09 12:00:15;;;;;;;;;;;14.90;99.90;;;;;;5095039;28;19970;-89
2022/03/09 12:02:45;;;;;;;;;;;15.00;99.90;;;;;;5095593;28;20042;-90
2022/03/09 12:05:34;;;;;;;;;;;15.10;99.90;;;;;;5117720;28;19908;-90
2022/03/09 12:08:10;;;;;;;;;;;15.30;99.90;;;;;;5057311;28;20297;-89
2022/03/09 12:10:38;;;;;;;;;;;15.30;99.90;;;;;;5086492;28;19912;-89
2022/03/09 12:13:14;;;;;;;;;;;15.50;99.90;;;;;;5091666;28;19914;-89
2022/03/09 12:15:59;;;;;;;;;;;15.70;99.90;;;;;;5100648;28;19914;-89
2022/03/09 12:18:35;;;;;;;;;;;15.70;99.90;;;;;;5093264;28;19915;-89
2022/03/09 12:21:02;;;;;;;;;;;15.70;99.90;;;;;;5098177;28;19950;-90
2022/03/09 12:23:28;;;;;;;;;;;15.60;99.90;;;;;;5111590;28;19985;-89
2022/03/09 12:25:54;;;;;;;;;;;15.70;99.90;;;;;;5092976;28;19908;-90
2022/03/09 12:28:25;;;;;;;;;;;15.90;99.90;;;;;;5111420;28;19912;-89
2022/03/09 12:30:54;;;;;;;;;;;16.10;99.90;;;;;;5111022;28;19911;-89
2022/03/09 12:33:24;;;;;;;;;;;16.20;99.90;;;;;;5092562;28;19934;-89
2022/03/09 12:35:49;;;;;;;;;;;16.30;99.90;;;;;;5091551;28;19961;-90
2022/03/09 12:38:15;;;;;;;;;;;16.40;99.90;;;;;;5103420;28;19908;-89
2022/03/09 12:40:40;;;;;;;;;;;16.40;99.90;;;;;;5104265;28;19918;-89
2022/03/09 12:43:06;;;;;;;;;;;16.30;99.90;;;;;;5092367;28;19977;-89
2022/03/09 12:45:50;;;;;;;;;;;16.50;99.90;;;;;;5111347;28;19908;-90
2022/03/09 12:48:18;;;;;;;;;;;16.60;99.90;;;;;;5066812;28;20405;-90
2022/03/09 12:50:43;;;;;;;;;;;16.60;99.90;;;;;;5110680;28;20050;-89
2022/03/09 12:53:09;;;;;;;;;;;16.80;99.90;;;;;;5110582;28;19935;-90
2022/03/09 12:55:36;;;;;;;;;;;16.90;99.90;;;;;;5111066;28;20445;-89
2022/03/09 12:58:01;;;;;;;;;;;16.90;99.90;;;;;;5098410;28;20150;-90
2022/03/09 13:00:34;;;;;;;;;;;16.90;99.90;;;;;;5079465;28;20414;-89
2022/03/09 13:03:00;;;;;;;;;;;16.90;99.90;;;;;;5073527;28;19912;-88
2022/03/09 13:05:27;;;;;;;;;;;16.80;99.90;;;;;;5098525;28;19908;-89
2022/03/09 13:07:56;;;;;;;;;;;16.70;99.90;;;;;;5073655;28;19913;-88
2022/03/09 13:10:24;;;;;;;;;;;16.70;99.90;;;;;;5110439;28;19965;-89
2022/03/09 13:12:50;;;;;;;;;;;16.80;99.90;;;;;;5092895;28;20498;-89
2022/03/09 13:15:16;;;;;;;;;;;16.80;99.90;;;;;;5092113;28;19908;-89
2022/03/09 13:17:43;;;;;;;;;;;16.70;99.90;;;;;;5091246;28;19908;-89
2022/03/09 13:20:09;;;;;;;;;;;17.00;99.90;;;;;;5091325;28;19923;-89
2022/03/09 13:22:45;;;;;;;;;;;17.00;99.90;;;;;;5073214;28;19986;-88
2022/03/09 13:25:10;;;;;;;;;;;17.10;99.90;;;;;;5073482;28;19909;-89
2022/03/09 13:27:36;;;;;;;;;;;17.10;99.90;;;;;;5096653;28;19915;-89
2022/03/09 13:30:11;;;;;;;;;;;17.40;99.90;;;;;;5073549;28;19953;-89
2022/03/09 13:32:37;;;;;;;;;;;17.60;99.90;;;;;;5090565;28;19908;-89
2022/03/09 13:35:02;;;;;;;;;;;17.60;99.90;;;;;;5103086;28;19908;-89
2022/03/09 13:37:37;;;;;;;;;;;17.40;99.90;;;;;;5080114;28;19934;-90
2022/03/09 13:40:05;;;;;;;;;;;17.40;99.90;;;;;;5090761;28;20251;-90
2022/03/09 13:42:39;;;;;;;;;;;17.50;99.90;;;;;;5097729;28;20526;-89
2022/03/09 13:45:10;;;;;;;;;;;17.30;99.90;;;;;;5090890;28;19987;-89
2022/03/09 13:47:47;;;;;;;;;;;17.10;99.90;;;;;;5091405;28;20387;-89
2022/03/09 13:50:22;;;;;;;;;;;16.80;99.90;;;;;;5072758;28;19908;-90
2022/03/09 13:52:48;;;;;;;;;;;16.70;99.90;;;;;;5084015;28;19908;-90
2022/03/09 13:55:24;;;;;;;;;;;16.70;99.90;;;;;;5074208;28;19920;-90
2022/03/09 13:58:05;;;;;;;;;;;16.80;99.90;;;;;;5091086;28;20011;-90
2022/03/09 14:00:33;;;;;;;;;;;16.70;99.90;;;;;;5109886;28;19920;-90
2022/03/09 14:03:08;;;;;;;;;;;16.70;99.90;;;;;;5094950;28;19908;-89
2022/03/09 14:05:34;;;;;;;;;;;16.70;99.90;;;;;;5070109;28;19915;-90
2022/03/09 14:08:00;;;;;;;;;;;16.60;99.90;;;;;;5095768;28;20291;-90
2022/03/09 14:10:27;;;;;;;;;;;16.80;99.90;;;;;;5088980;28;19908;-90
2022/03/09 14:12:54;;;;;;;;;;;16.90;99.90;;;;;;5114043;28;20253;-89
2022/03/09 14:15:19;;;;;;;;;;;16.90;99.90;;;;;;5089729;28;19909;-89
2022/03/09 14:17:45;;;;;;;;;;;16.90;99.90;;;;;;5094642;28;19914;-89
2022/03/09 14:20:12;;;;;;;;;;;16.80;99.90;;;;;;5076205;28;19920;-90
2022/03/09 14:22:48;;;;;;;;;;;16.70;99.90;;;;;;5094103;28;19911;-89
2022/03/09 14:25:14;;;;;;;;;;;16.50;99.90;;;;;;5076201;28;19931;-90
2022/03/09 14:27:40;;;;;;;;;;;16.30;99.90;;;;;;5106622;28;19908;-89